Time;durP1;ratioP1;P1;durP2;ratioP2;P2;SDS_P1;SDS_P2;PMS_P1;PMS_P2;Temp;Humidity;BMP_temperature;BMP_pressure;BME280_temperature;BME280_humidity;BME280_pressure;Samples;Min_cycle;Max_cycle;Signal;HPM_P1;HPM_P2
2022/01/30 00:02:16;;;;;;;;;;;;;;;5.63;81.01;102675.94;5093089;27;19915;-80
2022/01/30 00:04:41;;;;;;;;;;;;;;;5.61;81.20;102675.97;5085849;28;19921;-85
2022/01/30 00:07:07;;;;;;;;;;;;;;;5.56;81.37;102693.31;5086293;28;20401;-79
2022/01/30 00:09:32;;;;;;;;;;;;;;;5.58;81.21;102692.44;5080457;28;19916;-80
2022/01/30 00:12:01;;;;;;;;;;;;;;;5.67;81.00;102698.59;5091447;28;19916;-77
2022/01/30 00:14:29;;;;;;;;;;;;;;;5.61;81.44;102702.03;5083750;28;19916;-78
2022/01/30 00:19:42;;;;;;;;;;;;;;;5.65;82.03;102703.78;5067769;28;20405;-80
2022/01/30 00:27:32;;;;;;;;;;;;;;;5.81;83.19;102719.50;5068020;28;19981;-86
2022/01/30 00:29:57;;;;;;;;;;;;;;;5.98;83.83;102719.53;5069746;28;19929;-84
2022/01/30 00:32:23;;;;;;;;;;;;;;;6.03;80.07;102708.28;5067156;28;20302;-81
2022/01/30 00:34:48;;;;;;;;;;;;;;;5.91;81.40;102713.44;5063589;28;19916;-81
2022/01/30 00:37:14;;;;;;;;;;;;;;;5.85;80.28;102716.00;5069396;28;19925;-80
2022/01/30 00:39:40;;;;;;;;;;;;;;;5.82;80.83;102698.63;5061246;28;20340;-82
2022/01/30 00:42:05;;;;;;;;;;;;;;;5.76;80.07;102700.31;5060623;28;19925;-82
2022/01/30 00:44:30;;;;;;;;;;;;;;;5.67;80.95;102704.66;5061228;28;19932;-83
2022/01/30 00:46:56;;;;;;;;;;;;;;;5.64;80.33;102706.38;5062403;28;19931;-83
2022/01/30 00:49:22;;;;;;;;;;;;;;;5.56;80.87;102690.69;5062517;28;19928;-81
2022/01/30 00:51:47;;;;;;;;;;;;;;;5.53;80.25;102701.09;5056626;28;19928;-75
2022/01/30 00:54:13;;;;;;;;;;;;;;;5.49;82.07;102709.81;5056837;28;20332;-75
2022/01/30 00:56:38;;;;;;;;;;;;;;;5.46;82.19;102718.44;5058819;28;19916;-76
2022/01/30 00:59:03;;;;;;;;;;;;;;;5.42;83.17;102720.19;5055088;28;20362;-75
2022/01/30 01:01:29;;;;;;;;;;;;;;;5.40;83.46;102719.28;5054565;28;19985;-76
2022/01/30 01:03:54;;;;;;;;;;;;;;;5.42;83.79;102712.34;5053231;28;20502;-74
2022/01/30 01:06:20;;;;;;;;;;;;;;;5.39;84.46;102732.31;5050058;28;19947;-76
2022/01/30 01:11:41;;;;;;;;;;;;;;;5.39;84.33;102733.22;5059756;28;20054;-75
2022/01/30 01:24:49;;;;;;;;;;;;;;;5.33;83.49;102725.34;5055357;28;19921;-75
2022/01/30 01:27:14;;;;;;;;;;;;;;;5.32;82.95;102718.38;5057848;28;19924;-75
2022/01/30 01:29:40;;;;;;;;;;;;;;;5.35;81.69;102720.13;5055642;28;20011;-74
2022/01/30 01:32:05;;;;;;;;;;;;;;;5.41;80.85;102715.81;5051035;28;19948;-73
2022/01/30 01:37:12;;;;;;;;;;;;;;;5.46;77.57;102686.31;5055353;28;19959;-75
2022/01/30 01:39:37;;;;;;;;;;;;;;;5.58;75.91;102696.81;5056765;28;19959;-76
2022/01/30 01:42:03;;;;;;;;;;;;;;;5.52;75.27;102673.28;5055739;28;19956;-77
2022/01/30 01:47:10;;;;;;;;;;;;;;;5.52;76.56;102691.53;5069471;28;19950;-79
2022/01/30 01:49:35;;;;;;;;;;;;;;;5.40;76.99;102698.44;5070166;28;19924;-77
2022/01/30 01:54:42;;;;;;;;;;;;;;;5.15;78.97;102718.28;5069443;28;20057;-76
2022/01/30 01:57:07;;;;;;;;;;;;;;;5.09;80.26;102726.06;5068971;28;20015;-76
2022/01/30 01:59:33;;;;;;;;;;;;;;;5.07;81.42;102728.66;5071793;28;20054;-77
2022/01/30 02:02:00;;;;;;;;;;;;;;;5.08;82.15;102729.53;5070190;28;19927;-76
2022/01/30 02:04:26;;;;;;;;;;;;;;;5.11;81.40;102725.22;5068926;28;19924;-77
2022/01/30 02:09:33;;;;;;;;;;;;;;;5.17;79.87;102711.34;5068796;28;20010;-75
2022/01/30 02:11:59;;;;;;;;;;;;;;;5.20;80.25;102720.91;5063181;28;20372;-76
2022/01/30 02:14:36;;;;;;;;;;;;;;;5.14;80.35;102718.28;5089153;28;19970;-76
2022/01/30 02:27:47;;;;;;;;;;;;;;;5.28;80.17;102739.22;5069433;28;19995;-80
2022/01/30 02:30:15;;;;;;;;;;;;;;;5.23;79.00;102713.13;5070128;28;19916;-79
2022/01/30 02:32:41;;;;;;;;;;;;;;;5.19;78.80;102716.56;5070184;28;20260;-80
2022/01/30 02:35:06;;;;;;;;;;;;;;;5.10;78.51;102712.19;5062125;28;19916;-79
2022/01/30 02:37:32;;;;;;;;;;;;;;;5.07;77.04;102707.81;5073391;28;19920;-80
2022/01/30 02:39:57;;;;;;;;;;;;;;;5.04;76.54;102704.31;5071156;28;20003;-78
2022/01/30 02:42:26;;;;;;;;;;;;;;;4.98;77.24;102712.97;5068602;28;19924;-80
2022/01/30 02:44:56;;;;;;;;;;;;;;;4.91;77.55;102711.19;5072741;28;19966;-81
2022/01/30 02:52:50;;;;;;;;;;;;;;;4.82;79.73;102726.75;5093649;28;19923;-80
2022/01/30 02:55:15;;;;;;;;;;;;;;;4.82;78.91;102724.16;5090728;28;20378;-79
2022/01/30 02:57:41;;;;;;;;;;;;;;;4.78;78.21;102724.09;5087267;28;19924;-79
2022/01/30 03:00:07;;;;;;;;;;;;;;;4.87;76.76;102720.72;5088461;28;19944;-79
2022/01/30 03:02:32;;;;;;;;;;;;;;;4.87;76.28;102714.63;5093754;28;19916;-80
2022/01/30 03:04:58;;;;;;;;;;;;;;;4.83;76.61;102729.34;5090435;28;19978;-78
2022/01/30 03:07:23;;;;;;;;;;;;;;;4.85;76.47;102724.19;5086077;28;19920;-81
2022/01/30 03:09:49;;;;;;;;;;;;;;;4.78;78.03;102729.31;5087103;28;19931;-76
2022/01/30 03:12:14;;;;;;;;;;;;;;;4.70;79.63;102751.81;5079747;28;20289;-77
2022/01/30 03:14:39;;;;;;;;;;;;;;;4.67;80.57;102756.13;5087312;28;19920;-78
2022/01/30 03:17:05;;;;;;;;;;;;;;;4.74;80.71;102760.53;5086849;28;19920;-75
2022/01/30 03:19:30;;;;;;;;;;;;;;;4.69;81.69;102754.41;5088023;28;19942;-76
2022/01/30 03:21:55;;;;;;;;;;;;;;;4.63;81.36;102763.06;5090031;28;19966;-77
2022/01/30 03:24:21;;;;;;;;;;;;;;;4.59;82.16;102754.31;5083958;28;20376;-76
2022/01/30 03:26:46;;;;;;;;;;;;;;;4.61;82.26;102756.94;5086881;28;19950;-77
2022/01/30 03:29:11;;;;;;;;;;;;;;;4.58;82.83;102752.56;5086383;28;19920;-75
2022/01/30 03:31:38;;;;;;;;;;;;;;;4.53;83.03;102756.00;5089357;28;20263;-74
2022/01/30 03:34:05;;;;;;;;;;;;;;;4.59;82.57;102761.28;5084496;28;19920;-75
2022/01/30 03:36:31;;;;;;;;;;;;;;;4.54;81.84;102765.53;5078121;28;19969;-77
2022/01/30 03:38:56;;;;;;;;;;;;;;;4.63;81.18;102761.31;5090089;28;19923;-77
2022/01/30 03:41:21;;;;;;;;;;;;;;;4.67;80.80;102756.13;5087411;28;19961;-77
2022/01/30 03:43:48;;;;;;;;;;;;;;;4.71;80.07;102768.31;5086059;28;19985;-77
2022/01/30 03:46:13;;;;;;;;;;;;;;;4.79;79.74;102754.50;5096471;28;20424;-86
2022/01/30 03:48:38;;;;;;;;;;;;;;;4.83;79.34;102759.75;5086788;28;20395;-84
2022/01/30 03:51:03;;;;;;;;;;;;;;;4.92;80.05;102757.22;5084405;28;19965;-80
2022/01/30 03:53:31;;;;;;;;;;;;;;;4.97;79.90;102770.28;5081088;28;19916;-79
2022/01/30 03:55:56;;;;;;;;;;;;;;;5.14;79.92;102763.44;5085720;28;20343;-80
2022/01/30 03:58:22;;;;;;;;;;;;;;;5.21;79.38;102749.63;5089674;28;20050;-80
2022/01/30 04:00:47;;;;;;;;;;;;;;;5.30;77.56;102753.13;5089993;28;19924;-79
2022/01/30 04:03:12;;;;;;;;;;;;;;;5.24;77.88;102749.59;5091434;28;19923;-91
2022/01/30 04:05:38;;;;;;;;;;;;;;;5.17;76.96;102749.59;5092243;28;20083;-78
2022/01/30 04:08:03;;;;;;;;;;;;;;;5.06;78.10;102745.16;5088287;28;19938;-77
2022/01/30 04:10:30;;;;;;;;;;;;;;;5.00;78.74;102758.13;5090119;28;19916;-83
2022/01/30 04:12:55;;;;;;;;;;;;;;;5.00;77.13;102752.91;5091360;28;19916;-78
2022/01/30 04:15:21;;;;;;;;;;;;;;;4.86;77.71;102758.03;5087295;28;19920;-75
2022/01/30 04:17:46;;;;;;;;;;;;;;;4.83;77.49;102763.22;5085717;28;19928;-74
2022/01/30 04:20:11;;;;;;;;;;;;;;;4.69;78.12;102759.59;5085039;28;19951;-74
2022/01/30 04:22:37;;;;;;;;;;;;;;;4.66;78.34;102762.19;5084971;28;19927;-74
2022/01/30 04:25:02;;;;;;;;;;;;;;;4.67;79.05;102750.94;5083480;28;19924;-74
2022/01/30 04:27:27;;;;;;;;;;;;;;;4.70;79.33;102762.25;5086258;28;19931;-74
2022/01/30 04:29:53;;;;;;;;;;;;;;;4.72;79.22;102767.44;5088230;28;19917;-78
2022/01/30 04:32:18;;;;;;;;;;;;;;;4.67;80.11;102766.56;5088550;28;19966;-79
2022/01/30 04:34:51;;;;;;;;;;;;;;;4.71;80.71;102771.81;5084675;28;20289;-73
2022/01/30 05:09:26;;;;;;;;;;;;;;;4.58;78.75;102782.94;5065208;28;19917;-75
2022/01/30 05:11:53;;;;;;;;;;;;;;;4.62;78.30;102782.13;5068059;28;20431;-75
2022/01/30 05:14:21;;;;;;;;;;;;;;;4.59;78.65;102800.31;5069577;28;20456;-75
2022/01/30 05:16:47;;;;;;;;;;;;;;;4.52;79.28;102799.38;5069521;28;19997;-75
2022/01/30 05:19:13;;;;;;;;;;;;;;;4.49;79.45;102805.44;5068282;28;20310;-74
2022/01/30 05:21:38;;;;;;;;;;;;;;;4.47;79.14;102801.94;5070868;28;19916;-74
2022/01/30 05:24:04;;;;;;;;;;;;;;;4.48;79.42;102803.69;5068048;28;19964;-77
2022/01/30 05:26:31;;;;;;;;;;;;;;;4.42;79.80;102808.81;5073083;28;19960;-75
2022/01/30 05:28:56;;;;;;;;;;;;;;;4.40;80.05;102805.34;5069066;28;19923;-77
2022/01/30 05:31:22;;;;;;;;;;;;;;;4.43;80.17;102820.09;5070405;28;19920;-78
2022/01/30 05:33:47;;;;;;;;;;;;;;;4.47;80.15;102821.88;5068864;28;19956;-75
2022/01/30 05:36:13;;;;;;;;;;;;;;;4.42;80.26;102827.03;5070663;28;19923;-76
2022/01/30 05:38:38;;;;;;;;;;;;;;;4.36;80.89;102834.78;5074085;28;19959;-76
2022/01/30 05:41:04;;;;;;;;;;;;;;;4.35;80.07;102830.44;5070323;28;20398;-79
2022/01/30 05:43:31;;;;;;;;;;;;;;;4.33;80.18;102830.41;5074680;28;19944;-79
2022/01/30 05:48:38;;;;;;;;;;;;;;;4.24;81.00;102842.44;5061349;28;20357;-78
2022/01/30 05:51:04;;;;;;;;;;;;;;;4.26;80.69;102843.34;5069705;28;19982;-78
2022/01/30 05:53:29;;;;;;;;;;;;;;;4.22;80.71;102857.16;5075449;28;19923;-77
2022/01/30 05:55:54;;;;;;;;;;;;;;;4.15;80.93;102871.81;5077719;28;19965;-77
2022/01/30 05:58:20;;;;;;;;;;;;;;;4.24;80.45;102871.94;5074114;28;19928;-77
2022/01/30 06:00:45;;;;;;;;;;;;;;;4.22;80.54;102880.56;5070915;28;19921;-77
2022/01/30 06:03:10;;;;;;;;;;;;;;;4.15;81.33;102872.69;5070405;28;19946;-77
2022/01/30 06:05:35;;;;;;;;;;;;;;;4.07;81.14;102881.25;5071339;28;19977;-76
2022/01/30 06:08:10;;;;;;;;;;;;;;;4.07;82.22;102882.13;5069572;28;19920;-75
2022/01/30 06:10:36;;;;;;;;;;;;;;;4.00;82.50;102882.88;5069399;28;20393;-77
2022/01/30 06:13:01;;;;;;;;;;;;;;;4.03;82.59;102885.53;5069621;28;19920;-75
2022/01/30 06:15:27;;;;;;;;;;;;;;;4.01;82.43;102901.13;5070723;28;20311;-76
2022/01/30 06:17:52;;;;;;;;;;;;;;;3.94;82.91;102895.81;5064144;28;19921;-75
2022/01/30 06:20:17;;;;;;;;;;;;;;;3.91;83.26;102904.44;5070515;28;19927;-75
2022/01/30 06:22:42;;;;;;;;;;;;;;;3.90;83.17;102902.69;5062369;28;19928;-76
2022/01/30 06:25:08;;;;;;;;;;;;;;;3.91;82.49;102906.16;5068578;28;19924;-75
2022/01/30 06:27:33;;;;;;;;;;;;;;;3.85;82.61;102904.34;5070712;28;19942;-77
2022/01/30 06:29:59;;;;;;;;;;;;;;;3.84;83.07;102913.88;5059306;28;19916;-76
2022/01/30 06:32:24;;;;;;;;;;;;;;;3.72;83.38;102924.09;5058642;28;20249;-77
2022/01/30 06:34:49;;;;;;;;;;;;;;;3.76;83.66;102932.81;5072520;28;19917;-76
2022/01/30 06:37:15;;;;;;;;;;;;;;;3.77;83.51;102932.81;5111803;27;19920;-76
2022/01/30 06:39:40;;;;;;;;;;;;;;;3.96;82.27;102933.13;5075909;28;19916;-76
2022/01/30 06:42:06;;;;;;;;;;;;;;;4.06;81.70;102929.81;5062358;28;19916;-76
2022/01/30 06:44:32;;;;;;;;;;;;;;;4.14;81.58;102937.69;5072614;28;19951;-75
2022/01/30 06:46:57;;;;;;;;;;;;;;;4.23;81.36;102931.75;5068375;28;19995;-76
2022/01/30 06:49:22;;;;;;;;;;;;;;;4.36;81.12;102936.28;5070322;28;19929;-76
2022/01/30 06:51:47;;;;;;;;;;;;;;;4.46;80.12;102932.06;5070889;28;20378;-76
2022/01/30 06:54:13;;;;;;;;;;;;;;;4.58;79.53;102934.81;5069842;28;19924;-76
2022/01/30 06:56:38;;;;;;;;;;;;;;;4.59;79.48;102928.75;5069639;28;20334;-75
2022/01/30 06:59:03;;;;;;;;;;;;;;;4.55;80.74;102934.78;5060461;28;20282;-75
2022/01/30 07:01:29;;;;;;;;;;;;;;;4.50;80.90;102923.44;5065260;28;19917;-75
2022/01/30 07:03:54;;;;;;;;;;;;;;;4.46;81.32;102939.88;5066448;28;20031;-74
2022/01/30 07:06:19;;;;;;;;;;;;;;;4.56;81.33;102943.44;5056268;28;20282;-75
2022/01/30 07:08:45;;;;;;;;;;;;;;;4.49;82.06;102953.81;5068369;28;20365;-75
2022/01/30 07:11:10;;;;;;;;;;;;;;;4.40;81.96;102956.28;5061787;28;19916;-75
2022/01/30 07:13:36;;;;;;;;;;;;;;;4.35;82.21;102965.75;5067087;28;19924;-75
2022/01/30 07:16:01;;;;;;;;;;;;;;;4.34;81.38;102964.00;5065966;28;19974;-75
2022/01/30 07:18:26;;;;;;;;;;;;;;;4.25;81.82;102972.53;5065016;28;20566;-74
2022/01/30 07:20:51;;;;;;;;;;;;;;;4.21;81.59;102973.38;5062362;28;19916;-74
2022/01/30 07:23:17;;;;;;;;;;;;;;;4.26;81.42;102963.88;5061323;28;20864;-75
2022/01/30 07:25:44;;;;;;;;;;;;;;;4.27;80.55;102975.19;5068629;28;19963;-76
2022/01/30 07:28:09;;;;;;;;;;;;;;;4.27;80.44;102972.59;5065866;28;20402;-75
2022/01/30 07:30:36;;;;;;;;;;;;;;;4.21;80.68;102982.88;5066746;28;19922;-76
2022/01/30 07:33:02;;;;;;;;;;;;;;;4.09;80.97;102971.44;5067133;28;20064;-73
2022/01/30 07:35:27;;;;;;;;;;;;;;;4.04;81.06;102983.53;5079490;28;19916;-73
2022/01/30 07:37:52;;;;;;;;;;;;;;;4.08;80.24;102985.28;5083064;28;19924;-77
2022/01/30 07:40:18;;;;;;;;;;;;;;;4.08;80.30;102981.84;5070238;28;20545;-80
2022/01/30 07:42:43;;;;;;;;;;;;;;;4.16;80.06;102981.09;5075467;28;20401;-72
2022/01/30 07:45:09;;;;;;;;;;;;;;;4.24;78.85;102982.94;5086067;28;20535;-76
2022/01/30 07:47:34;;;;;;;;;;;;;;;4.24;78.36;102980.34;5089345;28;19959;-77
2022/01/30 07:49:59;;;;;;;;;;;;;;;4.31;77.76;102961.34;5087122;28;20865;-77
2022/01/30 07:52:25;;;;;;;;;;;;;;;4.28;78.07;102958.72;5090141;28;19920;-78
2022/01/30 07:54:50;;;;;;;;;;;;;;;4.32;76.70;102950.97;5085090;28;19921;-76
2022/01/30 07:57:17;;;;;;;;;;;;;;;4.35;76.27;102946.66;5068330;28;20278;-76
2022/01/30 07:59:42;;;;;;;;;;;;;;;4.36;76.06;102957.09;5083410;28;19920;-75
2022/01/30 08:02:08;;;;;;;;;;;;;;;4.42;76.31;102957.16;5084091;28;20395;-75
2022/01/30 08:04:33;;;;;;;;;;;;;;;4.44;76.61;102952.84;5086900;28;20064;-75
2022/01/30 08:06:59;;;;;;;;;;;;;;;4.41;76.60;102951.94;5087305;28;19991;-76
2022/01/30 08:09:25;;;;;;;;;;;;;;;4.50;77.40;102954.66;5086415;28;19927;-77
2022/01/30 08:11:50;;;;;;;;;;;;;;;4.52;77.12;102952.09;5090138;28;20405;-76
2022/01/30 08:14:15;;;;;;;;;;;;;;;4.58;77.54;102962.56;5088284;28;19920;-76
2022/01/30 08:16:40;;;;;;;;;;;;;;;4.64;77.68;102960.94;5089257;28;19952;-76
2022/01/30 08:19:06;;;;;;;;;;;;;;;4.76;77.19;102969.75;5088075;28;20306;-76
2022/01/30 08:21:31;;;;;;;;;;;;;;;4.80;77.37;102972.41;5089282;28;19920;-77
2022/01/30 08:23:57;;;;;;;;;;;;;;;4.76;77.19;102975.81;5081756;28;20411;-76
2022/01/30 08:26:22;;;;;;;;;;;;;;;4.79;77.08;102981.06;5087685;28;19921;-77
2022/01/30 08:28:47;;;;;;;;;;;;;;;4.82;77.35;102984.56;5084050;28;20007;-77
2022/01/30 08:31:13;;;;;;;;;;;;;;;4.98;77.16;102986.47;5087067;28;20308;-76
2022/01/30 08:33:38;;;;;;;;;;;;;;;5.15;76.17;102980.59;5089390;28;19920;-75
2022/01/30 08:36:03;;;;;;;;;;;;;;;5.25;75.34;102972.88;5080654;28;20300;-78
2022/01/30 08:38:29;;;;;;;;;;;;;;;5.32;74.92;102983.38;5078421;28;19916;-77
2022/01/30 08:40:54;;;;;;;;;;;;;;;5.32;75.49;102976.41;5087223;28;19983;-77
2022/01/30 08:43:21;;;;;;;;;;;;;;;5.32;76.08;102979.03;5086857;28;20160;-77
2022/01/30 08:45:47;;;;;;;;;;;;;;;5.39;75.62;102980.84;5076996;28;19930;-76
2022/01/30 08:48:12;;;;;;;;;;;;;;;5.45;76.13;102981.75;5083194;28;19995;-74
2022/01/30 08:50:38;;;;;;;;;;;;;;;5.55;75.48;102970.53;5077063;28;19924;-78
2022/01/30 08:53:04;;;;;;;;;;;;;;;5.63;75.43;102979.31;5082060;28;19920;-78
2022/01/30 08:55:29;;;;;;;;;;;;;;;5.77;75.77;102973.34;5090487;28;19916;-79
2022/01/30 08:57:55;;;;;;;;;;;;;;;5.95;75.18;102973.50;5086262;28;19923;-75
2022/01/30 09:00:21;;;;;;;;;;;;;;;6.31;75.04;102973.75;5085619;28;20616;-77
2022/01/30 09:02:47;;;;;;;;;;;;;;;6.49;74.33;102966.00;5084274;28;19931;-77
2022/01/30 09:05:12;;;;;;;;;;;;;;;6.53;75.61;102979.94;5087222;28;19920;-78
2022/01/30 09:07:38;;;;;;;;;;;;;;;6.55;74.95;102972.97;5090267;28;20340;-79
2022/01/30 09:10:04;;;;;;;;;;;;;;;6.52;74.88;102977.31;5084783;28;20388;-76
2022/01/30 09:12:29;;;;;;;;;;;;;;;6.54;74.87;102979.06;5083797;28;19921;-76
2022/01/30 09:14:55;;;;;;;;;;;;;;;6.71;74.43;102980.91;5085086;28;19923;-75
2022/01/30 09:17:22;;;;;;;;;;;;;;;7.26;72.55;102961.88;5078296;28;19935;-74
2022/01/30 09:19:47;;;;;;;;;;;;;;;7.50;71.51;102968.84;5079774;28;20434;-75
2022/01/30 09:22:14;;;;;;;;;;;;;;;8.35;68.72;102960.03;5083923;28;19916;-74
2022/01/30 09:24:40;;;;;;;;;;;;;;;8.99;65.92;102947.56;5079862;28;19947;-76
2022/01/30 09:27:07;;;;;;;;;;;;;;;9.36;64.57;102943.81;5085937;28;20380;-80
2022/01/30 09:29:33;;;;;;;;;;;;;;;8.85;64.29;102958.13;5085563;28;19923;-79
2022/01/30 09:31:59;;;;;;;;;;;;;;;8.04;64.53;102960.13;5098377;28;19916;-80
2022/01/30 09:34:25;;;;;;;;;;;;;;;8.59;63.79;102958.25;5086168;28;19924;-78
2022/01/30 09:36:50;;;;;;;;;;;;;;;8.84;61.91;102948.53;5088185;28;19923;-78
2022/01/30 09:39:15;;;;;;;;;;;;;;;9.75;59.77;102950.47;5083952;28;19920;-78
2022/01/30 09:41:42;;;;;;;;;;;;;;;9.84;57.42;102940.75;5091334;28;19916;-79
2022/01/30 09:44:09;;;;;;;;;;;;;;;10.13;56.00;102947.47;5084725;28;19920;-80
2022/01/30 09:46:34;;;;;;;;;;;;;;;10.05;54.98;103068.38;5088840;28;20339;-73
2022/01/30 09:49:00;;;;;;;;;;;;;;;10.45;54.20;103080.31;5081068;28;19932;-74
2022/01/30 09:51:25;;;;;;;;;;;;;;;10.81;53.50;103079.03;5085485;28;19920;-73
2022/01/30 09:53:50;;;;;;;;;;;;;;;10.68;53.11;103082.69;5082411;28;19917;-74
2022/01/30 09:56:18;;;;;;;;;;;;;;;10.45;54.65;103075.06;5083295;28;19962;-77
2022/01/30 09:58:44;;;;;;;;;;;;;;;10.20;55.01;103086.59;5087472;28;19920;-78
2022/01/30 10:01:09;;;;;;;;;;;;;;;10.11;53.89;103083.22;5086345;28;19927;-77
2022/01/30 10:03:35;;;;;;;;;;;;;;;10.02;54.42;103078.91;5091353;28;20380;-76
2022/01/30 10:06:00;;;;;;;;;;;;;;;10.04;53.26;103072.75;5085556;28;20327;-78
2022/01/30 10:08:27;;;;;;;;;;;;;;;10.35;53.18;103080.38;5082607;28;19922;-80
2022/01/30 10:11:26;;;;;;;;;;;;;;;10.50;52.47;103078.47;5086524;28;19920;-82
2022/01/30 10:14:07;;;;;;;;;;;;;;;10.82;51.71;103093.03;5083386;28;20296;-80
2022/01/30 10:16:34;;;;;;;;;;;;;;;10.93;52.05;103099.03;5070292;28;19924;-80
2022/01/30 10:19:06;;;;;;;;;;;;;;;10.59;52.26;103095.94;5086381;28;19931;-78
2022/01/30 10:21:32;;;;;;;;;;;;;;;10.97;51.13;103092.88;5070489;28;19920;-78
2022/01/30 10:23:57;;;;;;;;;;;;;;;11.44;50.43;103087.84;5068764;28;20020;-79
2022/01/30 10:26:38;;;;;;;;;;;;;;;11.16;50.43;103084.72;5075933;28;19928;-78
2022/01/30 10:29:19;;;;;;;;;;;;;;;11.29;50.80;103094.22;5088180;28;19938;-79
2022/01/30 10:31:59;;;;;;;;;;;;;;;11.90;50.07;103083.69;5087137;28;20381;-81
2022/01/30 10:34:26;;;;;;;;;;;;;;;10.88;51.99;103097.34;5090995;28;20377;-81
2022/01/30 10:37:10;;;;;;;;;;;;;;;11.06;52.67;103107.69;5090489;28;19920;-80
2022/01/30 10:39:51;;;;;;;;;;;;;;;11.61;50.65;103092.03;5093173;28;19985;-86
2022/01/30 10:42:32;;;;;;;;;;;;;;;11.57;51.93;103095.59;5084962;28;19924;-83
2022/01/30 10:44:57;;;;;;;;;;;;;;;11.75;50.22;103097.06;5080850;28;19928;-85
2022/01/30 10:47:23;;;;;;;;;;;;;;;11.66;49.15;103089.31;5088464;28;19931;-78
2022/01/30 10:49:48;;;;;;;;;;;;;;;10.93;51.58;103101.66;5081914;28;19924;-78
2022/01/30 10:52:13;;;;;;;;;;;;;;;11.10;52.05;103100.59;5082096;28;19960;-80
2022/01/30 10:54:39;;;;;;;;;;;;;;;10.55;53.46;103105.59;5084385;28;19930;-80
2022/01/30 10:57:06;;;;;;;;;;;;;;;10.02;54.54;103116.56;5087021;28;20034;-80
2022/01/30 10:59:32;;;;;;;;;;;;;;;10.17;55.04;103106.78;5087965;28;19960;-83
2022/01/30 11:02:10;;;;;;;;;;;;;;;9.84;55.95;103117.56;5082129;28;20352;-82
2022/01/30 11:04:35;;;;;;;;;;;;;;;8.90;58.43;103134.59;5090999;28;20396;-85
2022/01/30 11:07:02;;;;;;;;;;;;;;;8.78;58.79;103135.50;5087801;28;20010;-83
2022/01/30 11:09:32;;;;;;;;;;;;;;;8.53;59.81;103144.28;5100073;28;20008;-81
2022/01/30 11:12:02;;;;;;;;;;;;;;;8.47;60.00;103143.44;5084724;28;19956;-82
2022/01/30 11:17:23;;;;;;;;;;;;;;;8.51;60.41;103139.06;5082711;28;19928;-82
2022/01/30 11:19:51;;;;;;;;;;;;;;;8.52;59.80;103151.28;5084386;28;19924;-79
2022/01/30 11:22:18;;;;;;;;;;;;;;;8.17;61.88;103147.75;5088006;28;19982;-80
2022/01/30 11:27:24;;;;;;;;;;;;;;;8.12;62.30;103141.63;5083435;28;19959;-81
2022/01/30 11:29:50;;;;;;;;;;;;;;;8.09;62.04;103141.63;5088336;28;19959;-82
2022/01/30 11:32:17;;;;;;;;;;;;;;;8.20;61.03;103131.19;5089827;28;19926;-79
2022/01/30 11:34:42;;;;;;;;;;;;;;;8.03;60.62;103120.69;5081250;28;19924;-81
2022/01/30 11:37:09;;;;;;;;;;;;;;;8.05;61.99;103137.25;5086532;28;19927;-80
2022/01/30 11:39:36;;;;;;;;;;;;;;;8.01;60.31;103118.06;5091960;28;19970;-82
2022/01/30 11:45:13;;;;;;;;;;;;;;;7.72;63.00;103128.47;5081651;28;19928;-85
2022/01/30 11:47:44;;;;;;;;;;;;;;;7.81;62.39;103127.63;5080105;28;19934;-79
2022/01/30 11:50:10;;;;;;;;;;;;;;;7.84;62.42;103123.25;5083629;28;21383;-86
2022/01/30 11:52:50;;;;;;;;;;;;;;;7.70;62.25;103119.78;5081230;28;19920;-83
2022/01/30 11:55:31;;;;;;;;;;;;;;;8.10;60.94;103109.34;5081325;28;19990;-83
2022/01/30 11:57:56;;;;;;;;;;;;;;;7.98;61.73;103111.94;5082216;28;19931;-81
2022/01/30 12:00:37;;;;;;;;;;;;;;;7.98;62.15;103112.84;5082105;28;19921;-80
2022/01/30 12:03:18;;;;;;;;;;;;;;;8.00;61.45;103105.84;5088466;28;19960;-79
2022/01/30 12:05:43;;;;;;;;;;;;;;;8.18;61.08;103111.97;5089061;28;20015;-80
2022/01/30 12:08:28;;;;;;;;;;;;;;;8.28;60.14;103107.59;5082927;28;20043;-78
2022/01/30 12:10:53;;;;;;;;;;;;;;;8.05;60.23;103108.44;5085907;28;19924;-74
2022/01/30 12:13:39;;;;;;;;;;;;;;;8.04;61.21;103097.13;5080472;28;20388;-85
2022/01/30 12:16:04;;;;;;;;;;;;;;;8.18;61.32;103099.72;5073635;28;19980;-74
2022/01/30 12:18:44;;;;;;;;;;;;;;;8.08;61.82;103105.00;5080753;28;20000;-78
2022/01/30 12:21:15;;;;;;;;;;;;;;;7.96;61.84;103108.44;5089769;28;19924;-77
2022/01/30 12:23:41;;;;;;;;;;;;;;;7.90;61.12;103096.22;5073027;28;19970;-73
2022/01/30 12:26:07;;;;;;;;;;;;;;;7.84;62.08;103102.34;5081481;28;19935;-73
2022/01/30 12:28:48;;;;;;;;;;;;;;;7.80;62.98;103095.38;5083510;28;19920;-81
2022/01/30 12:31:30;;;;;;;;;;;;;;;7.82;63.86;103092.75;5096924;28;20315;-78
2022/01/30 12:34:11;;;;;;;;;;;;;;;7.85;63.77;103101.47;5080317;28;19920;-75
2022/01/30 12:36:37;;;;;;;;;;;;;;;7.89;63.64;103095.38;5080392;28;19924;-77
2022/01/30 12:41:58;;;;;;;;;;;;;;;7.73;64.39;103096.22;5068815;28;19974;-76
2022/01/30 12:44:29;;;;;;;;;;;;;;;7.69;64.31;103094.47;5084591;28;19924;-76
2022/01/30 12:46:54;;;;;;;;;;;;;;;7.77;63.96;103084.88;5085884;28;19928;-76
2022/01/30 12:49:43;;;;;;;;;;;;;;;8.03;64.57;103074.44;5085158;28;19939;-78
2022/01/30 12:52:16;;;;;;;;;;;;;;;8.16;61.66;103045.63;5085207;28;20388;-75
2022/01/30 12:54:43;;;;;;;;;;;;;;;8.33;61.06;103041.22;5081892;28;19979;-78
2022/01/30 12:57:09;;;;;;;;;;;;;;;8.30;61.04;103037.75;5079817;28;20373;-75
2022/01/30 12:59:35;;;;;;;;;;;;;;;8.30;60.68;103033.41;5083574;28;19970;-74
2022/01/30 13:02:16;;;;;;;;;;;;;;;8.07;61.55;103030.78;5087157;28;19920;-76
2022/01/30 13:04:41;;;;;;;;;;;;;;;8.11;61.39;103019.44;5084210;28;20529;-81
2022/01/30 13:07:11;;;;;;;;;;;;;;;7.97;61.26;103018.59;5078728;28;19928;-76
2022/01/30 13:09:36;;;;;;;;;;;;;;;7.74;61.34;103030.81;5078739;28;20053;-78
2022/01/30 13:12:11;;;;;;;;;;;;;;;7.63;61.33;103021.19;5074776;28;19967;-75
2022/01/30 13:14:37;;;;;;;;;;;;;;;7.47;62.59;103026.41;5076530;28;19980;-77
2022/01/30 13:17:03;;;;;;;;;;;;;;;7.52;61.55;103018.59;5079888;28;20000;-74
2022/01/30 13:19:28;;;;;;;;;;;;;;;7.39;61.62;103017.66;5078606;28;20017;-75
2022/01/30 13:21:54;;;;;;;;;;;;;;;7.41;62.09;103022.06;5075579;28;20361;-74
2022/01/30 13:24:20;;;;;;;;;;;;;;;7.34;62.00;103016.81;5076327;28;21056;-77
2022/01/30 13:26:46;;;;;;;;;;;;;;;7.33;61.64;103007.22;5080210;28;20447;-77
2022/01/30 13:29:27;;;;;;;;;;;;;;;7.26;61.94;103012.44;5081879;28;19922;-74
2022/01/30 13:31:54;;;;;;;;;;;;;;;7.20;63.49;103006.31;5086174;28;19920;-75
2022/01/30 13:34:21;;;;;;;;;;;;;;;7.16;63.42;103005.44;5081451;28;19924;-76
2022/01/30 13:39:48;;;;;;;;;;;;;;;7.27;61.37;103000.22;5089303;28;19920;-78
2022/01/30 13:42:28;;;;;;;;;;;;;;;7.32;60.41;102990.66;5098127;28;19927;-75
2022/01/30 13:45:07;;;;;;;;;;;;;;;7.31;59.33;102977.56;5086321;28;19925;-78
2022/01/30 13:47:33;;;;;;;;;;;;;;;7.36;59.59;102987.16;5087577;28;19920;-76
2022/01/30 13:49:59;;;;;;;;;;;;;;;7.41;59.97;102981.94;5087361;28;19997;-75
2022/01/30 13:52:30;;;;;;;;;;;;;;;7.43;60.58;102972.34;5086078;28;20444;-75
2022/01/30 13:55:11;;;;;;;;;;;;;;;7.53;60.97;102974.09;5088460;28;19920;-76
2022/01/30 13:57:37;;;;;;;;;;;;;;;7.49;59.73;102964.53;5085734;28;19928;-75
2022/01/30 14:00:04;;;;;;;;;;;;;;;7.40;60.16;102961.88;5074646;28;19920;-75
2022/01/30 14:02:29;;;;;;;;;;;;;;;7.38;59.83;102951.44;5066988;28;19925;-75
2022/01/30 14:04:54;;;;;;;;;;;;;;;7.34;60.32;102951.44;5072484;28;19974;-76
2022/01/30 14:07:35;;;;;;;;;;;;;;;7.24;60.50;102961.88;5082585;28;20092;-77
2022/01/30 14:10:06;;;;;;;;;;;;;;;7.27;60.42;102947.94;5072834;28;19922;-76
2022/01/30 14:12:47;;;;;;;;;;;;;;;7.38;60.62;102947.97;5082595;28;19924;-75
2022/01/30 14:15:13;;;;;;;;;;;;;;;7.39;60.43;102954.91;5087174;28;19920;-79
2022/01/30 14:17:41;;;;;;;;;;;;;;;7.24;61.14;102954.03;5089070;28;19988;-76
2022/01/30 14:20:10;;;;;;;;;;;;;;;7.11;60.61;102945.28;5082429;27;20401;-78
2022/01/30 14:22:35;;;;;;;;;;;;;;;7.18;60.76;102940.94;5084945;28;19947;-77
2022/01/30 14:25:03;;;;;;;;;;;;;;;7.08;60.65;102937.47;5089746;28;19960;-76